createdAt,value
2022-08-07T00:00:14.193Z,6.83
2022-08-07T00:02:44.222Z,7.20
2022-08-07T00:05:11.172Z,7.10
2022-08-07T00:07:40.580Z,7.22
2022-08-07T00:10:25.859Z,6.47
2022-08-07T00:12:57.839Z,6.90
2022-08-07T00:15:38.060Z,6.50
2022-08-07T00:18:18.699Z,6.97
2022-08-07T00:20:45.925Z,6.78
2022-08-07T00:23:14.892Z,6.90
2022-08-07T00:25:52.070Z,6.57
2022-08-07T00:28:33.807Z,7.22
2022-08-07T00:31:06.407Z,6.45
2022-08-07T00:33:39.675Z,7.10
2022-08-07T00:36:07.603Z,6.82
2022-08-07T00:38:36.595Z,6.88
2022-08-07T00:41:03.484Z,6.68
2022-08-07T00:44:01.649Z,7.15
2022-08-07T00:46:16.678Z,7.38
2022-08-07T00:48:44.377Z,6.95
2022-08-07T00:51:16.172Z,7.50
2022-08-07T00:53:50.458Z,8.00
2022-08-07T00:56:22.173Z,7.07
2022-08-07T00:58:49.998Z,7.28
2022-08-07T01:01:17.558Z,7.63
2022-08-07T01:03:55.639Z,8.05
2022-08-07T01:06:26.691Z,8.32
2022-08-07T01:12:09.453Z,7.47
2022-08-07T01:14:09.303Z,8.68
2022-08-07T01:16:36.687Z,7.93
2022-08-07T01:19:03.971Z,8.35
2022-08-07T01:21:37.533Z,7.97
2022-08-07T01:24:04.989Z,8.27
2022-08-07T01:26:31.557Z,7.82
2022-08-07T01:28:58.094Z,8.43
2022-08-07T01:31:30.015Z,8.45
2022-08-07T01:34:08.820Z,8.48
2022-08-07T01:36:36.451Z,7.90
2022-08-07T01:39:09.950Z,8.88
2022-08-07T01:41:37.852Z,8.35
2022-08-07T01:44:05.266Z,8.25
2022-08-07T01:46:31.633Z,7.97
2022-08-07T01:48:58.022Z,8.35
2022-08-07T01:52:03.296Z,8.45
2022-08-07T01:54:37.099Z,8.73
2022-08-07T01:57:09.623Z,8.85
2022-08-07T01:59:55.819Z,9.05
2022-08-07T02:03:11.415Z,9.57
2022-08-07T02:05:15.832Z,9.05
2022-08-07T02:07:51.642Z,8.88
2022-08-07T02:10:18.996Z,9.70
2022-08-07T02:12:46.394Z,8.70
2022-08-07T02:15:20.088Z,9.00
2022-08-07T02:17:51.687Z,8.60
2022-08-07T02:20:23.325Z,9.77
2022-08-07T02:22:54.942Z,9.60
2022-08-07T02:26:10.905Z,9.00
2022-08-07T02:28:11.383Z,9.10
2022-08-07T02:30:38.703Z,8.73
2022-08-07T02:33:10.399Z,9.30
2022-08-07T02:36:28.290Z,9.20
2022-08-07T02:38:28.175Z,9.48
2022-08-07T02:40:59.509Z,9.45
2022-08-07T02:43:27.606Z,9.57
2022-08-07T02:45:58.494Z,10.05
2022-08-07T02:48:28.747Z,9.77
2022-08-07T02:50:56.063Z,9.73
2022-08-07T02:53:27.539Z,10.20
2022-08-07T02:56:03.497Z,9.57
2022-08-07T02:58:33.250Z,9.45
2022-08-07T03:01:00.759Z,8.98
2022-08-07T03:03:49.105Z,9.55
2022-08-07T03:06:26.017Z,9.60
2022-08-07T03:08:59.479Z,9.63
2022-08-07T03:11:28.128Z,9.50
2022-08-07T03:14:01.450Z,10.32
2022-08-07T03:16:28.615Z,10.80
2022-08-07T03:18:57.005Z,9.77
2022-08-07T03:21:24.417Z,10.93
2022-08-07T03:26:43.072Z,10.52
2022-08-07T03:29:18.668Z,10.63
2022-08-07T03:31:50.052Z,10.10
2022-08-07T03:34:18.696Z,11.05
2022-08-07T03:36:50.304Z,10.02
2022-08-07T03:39:18.085Z,10.63
2022-08-07T03:42:04.830Z,10.20
2022-08-07T03:44:34.678Z,9.77
2022-08-07T03:47:13.267Z,10.95
2022-08-07T03:49:41.433Z,10.82
2022-08-07T03:52:26.056Z,11.68
2022-08-07T03:55:06.844Z,10.60
2022-08-07T03:58:34.144Z,10.88
2022-08-07T04:00:21.077Z,10.52
2022-08-07T04:02:56.743Z,10.93
2022-08-07T04:05:23.954Z,10.93
2022-08-07T04:07:55.772Z,11.40
2022-08-07T04:10:22.710Z,11.00
2022-08-07T04:12:51.087Z,12.55
2022-08-07T04:15:18.024Z,9.73
2022-08-07T04:18:30.827Z,10.77
2022-08-07T04:20:31.276Z,11.73
2022-08-07T04:23:06.252Z,11.82
2022-08-07T04:25:39.084Z,11.00
2022-08-07T04:28:06.549Z,10.95
2022-08-07T04:30:39.550Z,11.45
2022-08-07T04:33:25.218Z,11.75
2022-08-07T04:35:53.910Z,10.80
2022-08-07T04:38:20.877Z,11.52
2022-08-07T04:40:51.753Z,11.43
2022-08-07T04:43:20.374Z,11.82
2022-08-07T04:46:00.762Z,10.45
2022-08-07T04:48:39.326Z,11.80
2022-08-07T04:51:16.104Z,10.80
2022-08-07T04:54:05.336Z,11.63
2022-08-07T04:58:13.687Z,11.38
2022-08-07T05:02:23.287Z,11.32
2022-08-07T05:05:11.568Z,11.27
2022-08-07T05:08:10.631Z,11.93
2022-08-07T05:10:41.701Z,11.50
2022-08-07T05:14:53.515Z,11.48
2022-08-07T05:16:04.394Z,12.80
2022-08-07T05:18:34.204Z,11.20
2022-08-07T05:21:02.237Z,11.52
2022-08-07T05:23:35.547Z,12.00
2022-08-07T05:26:11.579Z,11.48
2022-08-07T05:28:48.662Z,11.65
2022-08-07T05:31:18.466Z,12.00
2022-08-07T05:34:01.091Z,12.40
2022-08-07T05:36:35.532Z,11.40
2022-08-07T05:40:05.710Z,11.70
2022-08-07T05:42:00.547Z,10.90
2022-08-07T05:44:30.105Z,12.45
2022-08-07T05:46:56.733Z,11.52
2022-08-07T05:49:23.319Z,12.20
2022-08-07T05:51:49.752Z,12.35
2022-08-07T05:54:30.810Z,12.20
2022-08-07T05:57:03.983Z,11.48
2022-08-07T05:59:38.817Z,12.38
2022-08-07T06:02:28.443Z,11.77
2022-08-07T06:04:57.971Z,12.07
2022-08-07T06:08:14.072Z,11.95
2022-08-07T06:10:15.501Z,12.00
2022-08-07T06:12:42.049Z,11.77
2022-08-07T06:15:15.980Z,11.73
2022-08-07T06:17:53.902Z,11.43
2022-08-07T06:20:31.935Z,12.38
2022-08-07T06:23:24.791Z,11.55
2022-08-07T06:25:57.184Z,11.75
2022-08-07T06:28:27.985Z,10.95
2022-08-07T06:30:55.168Z,12.05
2022-08-07T06:33:22.754Z,11.93
2022-08-07T06:36:13.004Z,11.25
2022-08-07T06:38:35.973Z,11.60
2022-08-07T06:41:02.738Z,10.37
2022-08-07T06:43:39.520Z,11.18
2022-08-07T06:46:06.398Z,11.10
2022-08-07T06:48:41.862Z,11.15
2022-08-07T06:51:10.149Z,10.68
2022-08-07T06:55:27.249Z,10.65
2022-08-07T06:56:49.459Z,11.02
2022-08-07T07:00:13.245Z,10.18
2022-08-07T07:02:15.605Z,8.23
2022-08-07T07:05:02.340Z,9.02
2022-08-07T07:07:59.981Z,9.15
2022-08-07T07:10:15.007Z,9.52
2022-08-07T07:15:26.109Z,7.32
2022-08-07T07:18:11.513Z,9.00
2022-08-07T07:20:42.034Z,8.98
2022-08-07T07:24:08.641Z,7.88
2022-08-07T07:26:34.177Z,6.72
2022-08-07T07:29:40.218Z,7.22
2022-08-07T07:31:44.555Z,7.22
2022-08-07T07:34:18.249Z,6.38
2022-08-07T07:36:48.091Z,6.38
2022-08-07T07:39:21.416Z,6.60
2022-08-07T07:42:13.089Z,7.00
2022-08-07T07:47:14.179Z,6.15
2022-08-07T07:50:33.455Z,5.90
2022-08-07T07:52:38.487Z,5.60
2022-08-07T07:55:07.771Z,5.60
2022-08-07T07:57:50.348Z,5.55
2022-08-07T08:00:29.159Z,4.93
2022-08-07T08:03:08.502Z,4.40
2022-08-07T08:05:54.131Z,4.65
2022-08-07T08:08:32.311Z,4.18
2022-08-07T08:11:03.184Z,4.90
2022-08-07T08:13:30.732Z,4.53
2022-08-07T08:16:03.658Z,5.50
2022-08-07T08:18:31.113Z,4.95
2022-08-07T08:21:00.345Z,3.78
2022-08-07T08:23:47.560Z,3.80
2022-08-07T08:26:35.703Z,3.90
2022-08-07T08:29:03.199Z,3.60
2022-08-07T08:31:58.705Z,3.60
2022-08-07T08:34:27.074Z,4.25
2022-08-07T08:36:57.657Z,3.63
2022-08-07T08:39:25.340Z,3.28
2022-08-07T08:42:11.500Z,3.38
2022-08-07T08:44:59.267Z,3.60
2022-08-07T08:47:28.869Z,3.10
2022-08-07T08:50:05.538Z,2.97
2022-08-07T08:52:51.519Z,3.42
2022-08-07T08:57:50.860Z,2.67
2022-08-07T09:00:18.554Z,2.33
2022-08-07T09:02:57.724Z,2.63
2022-08-07T09:05:38.074Z,2.03
2022-08-07T09:08:24.274Z,2.67
2022-08-07T09:11:05.514Z,2.00
2022-08-07T09:13:54.824Z,2.33
2022-08-07T09:16:45.642Z,2.20
2022-08-07T09:19:52.685Z,2.15
2022-08-07T09:24:27.174Z,2.00
2022-08-07T09:25:29.523Z,2.30
2022-08-07T09:28:05.062Z,2.22
2022-08-07T09:30:37.829Z,2.30
2022-08-07T09:33:41.069Z,2.40
2022-08-07T09:36:14.450Z,2.08
2022-08-07T09:38:53.787Z,2.15
2022-08-07T09:42:03.087Z,2.30
2022-08-07T09:44:58.498Z,1.98
2022-08-07T09:48:00.907Z,2.03
2022-08-07T09:50:35.292Z,2.03
2022-08-07T09:53:02.961Z,2.05
2022-08-07T09:56:04.036Z,1.88
2022-08-07T09:58:48.852Z,2.10
2022-08-07T10:01:52.324Z,2.00
2022-08-07T10:04:39.225Z,1.70
2022-08-07T10:07:26.186Z,2.13
2022-08-07T10:10:21.827Z,1.90
2022-08-07T10:13:11.106Z,1.88
2022-08-07T10:16:01.034Z,1.88
2022-08-07T10:18:36.244Z,1.98
2022-08-07T10:21:19.971Z,2.00
2022-08-07T10:27:01.630Z,1.70
2022-08-07T10:29:34.888Z,2.03
2022-08-07T10:32:52.247Z,1.90
2022-08-07T10:35:20.490Z,1.80
2022-08-07T10:38:15.540Z,2.13
2022-08-07T10:41:05.502Z,1.70
2022-08-07T10:43:51.360Z,1.50
2022-08-07T10:46:32.726Z,2.08
2022-08-07T10:48:59.011Z,2.22
2022-08-07T10:52:01.940Z,1.85
2022-08-07T10:54:40.923Z,1.80
2022-08-07T10:57:34.134Z,2.10
2022-08-07T11:00:09.640Z,1.70
2022-08-07T11:03:03.388Z,2.00
2022-08-07T11:05:56.608Z,1.90
2022-08-07T11:08:30.338Z,2.05
2022-08-07T11:11:03.017Z,2.10
2022-08-07T11:14:42.152Z,2.40
2022-08-07T11:16:37.728Z,1.67
2022-08-07T11:19:08.413Z,1.52
2022-08-07T11:21:45.038Z,2.20
2022-08-07T11:24:22.588Z,1.95
2022-08-07T11:27:08.516Z,1.90
2022-08-07T11:30:17.682Z,1.80
2022-08-07T11:32:56.736Z,1.70
2022-08-07T11:35:30.602Z,1.80
2022-08-07T11:38:21.387Z,2.00
2022-08-07T11:40:57.828Z,2.10
2022-08-07T11:43:29.350Z,1.60
2022-08-07T11:45:59.205Z,2.00
2022-08-07T11:48:37.672Z,1.73
2022-08-07T11:51:04.366Z,1.98
2022-08-07T11:53:35.803Z,2.20
2022-08-07T11:56:26.325Z,1.73
2022-08-07T12:00:07.549Z,1.75
2022-08-07T12:01:59.660Z,1.80
2022-08-07T12:04:47.783Z,1.80
2022-08-07T12:07:27.353Z,1.85
2022-08-07T12:09:56.928Z,1.80
2022-08-07T12:12:26.802Z,1.60
2022-08-07T12:15:03.201Z,1.63
2022-08-07T12:20:11.425Z,1.60
2022-08-07T12:23:08.830Z,1.88
2022-08-07T12:26:21.472Z,1.48
2022-08-07T12:29:00.647Z,1.65
2022-08-07T12:31:37.665Z,1.48
2022-08-07T12:34:19.392Z,1.50
2022-08-07T12:36:49.539Z,1.40
2022-08-07T12:39:42.948Z,1.25
2022-08-07T12:42:07.011Z,1.42
2022-08-07T12:44:35.092Z,1.30
2022-08-07T12:47:08.721Z,1.70
2022-08-07T12:49:51.274Z,1.60
2022-08-07T12:52:29.499Z,1.60
2022-08-07T12:55:16.356Z,1.20
2022-08-07T12:58:01.057Z,1.70
2022-08-07T13:00:50.156Z,1.50
2022-08-07T13:03:53.513Z,1.70
2022-08-07T13:06:27.230Z,1.73
2022-08-07T13:10:10.996Z,1.75
2022-08-07T13:12:10.101Z,1.70
2022-08-07T13:14:51.060Z,1.48
2022-08-07T13:17:40.817Z,1.63
2022-08-07T13:20:14.156Z,1.85
2022-08-07T13:22:59.038Z,1.40
2022-08-07T13:25:42.973Z,1.25
2022-08-07T13:28:23.972Z,1.38
2022-08-07T13:31:02.076Z,1.50
2022-08-07T13:34:33.243Z,1.65
2022-08-07T13:36:35.360Z,1.70
2022-08-07T13:39:28.508Z,1.70
2022-08-07T13:42:02.406Z,1.73
2022-08-07T13:44:34.608Z,1.70
2022-08-07T13:47:09.600Z,1.48
2022-08-07T13:50:33.119Z,2.45
2022-08-07T13:52:36.193Z,7.43
2022-08-07T13:55:11.040Z,1.50
2022-08-07T13:57:59.107Z,1.58
2022-08-07T14:00:50.455Z,1.50
2022-08-07T14:03:29.953Z,1.30
2022-08-07T14:06:10.285Z,1.60
2022-08-07T14:08:45.826Z,1.80
2022-08-07T14:11:18.990Z,1.40
2022-08-07T14:13:55.115Z,1.73
2022-08-07T14:16:31.182Z,1.40
2022-08-07T14:18:59.706Z,1.40
2022-08-07T14:22:02.070Z,1.25
2022-08-07T14:24:41.268Z,1.60
2022-08-07T14:28:01.689Z,1.40
2022-08-07T14:32:56.097Z,1.70
2022-08-07T14:35:42.796Z,1.50
2022-08-07T14:38:26.793Z,1.70
2022-08-07T14:41:04.207Z,1.57
2022-08-07T14:43:58.663Z,2.05
2022-08-07T14:46:30.682Z,1.60
2022-08-07T14:48:58.897Z,1.80
2022-08-07T14:54:35.678Z,1.60
2022-08-07T14:57:03.620Z,2.10
2022-08-07T15:00:06.274Z,1.48
2022-08-07T15:02:32.056Z,1.60
2022-08-07T15:05:19.610Z,1.90
2022-08-07T15:10:34.387Z,1.85
2022-08-07T15:13:06.345Z,1.80
2022-08-07T15:15:40.780Z,1.80
2022-08-07T15:26:45.275Z,1.70
2022-08-07T15:30:08.461Z,1.83
2022-08-07T15:32:04.897Z,2.10
2022-08-07T15:34:50.726Z,1.70
2022-08-07T15:37:27.774Z,2.25
2022-08-07T15:39:57.974Z,1.80
2022-08-07T15:42:45.707Z,2.22
2022-08-07T15:45:56.180Z,2.42
2022-08-07T15:48:25.667Z,2.00
2022-08-07T15:51:05.966Z,2.33
2022-08-07T15:53:51.755Z,2.30
2022-08-07T15:56:24.223Z,1.90
2022-08-07T15:58:55.175Z,2.40
2022-08-07T16:01:38.738Z,2.10
2022-08-07T16:04:14.554Z,2.17
2022-08-07T16:06:55.879Z,2.45
2022-08-07T16:09:41.991Z,2.20
2022-08-07T16:12:30.721Z,2.20
2022-08-07T16:15:55.665Z,2.15
2022-08-07T16:18:49.643Z,2.60
2022-08-07T16:21:53.484Z,2.10
2022-08-07T16:24:09.016Z,1.90
2022-08-07T16:26:59.190Z,2.00
2022-08-07T16:30:09.640Z,1.92
2022-08-07T16:32:46.611Z,1.90
2022-08-07T16:35:56.806Z,1.70
2022-08-07T16:38:23.474Z,2.65
2022-08-07T16:41:25.732Z,1.80
2022-08-07T16:44:47.483Z,1.70
2022-08-07T16:47:18.653Z,1.88
2022-08-07T16:50:28.273Z,1.90
2022-08-07T16:53:48.204Z,1.95
2022-08-07T16:56:11.760Z,1.95
2022-08-07T16:59:10.866Z,1.90
2022-08-07T17:01:41.395Z,1.83
2022-08-07T17:04:24.562Z,2.05
2022-08-07T17:07:08.018Z,1.60
2022-08-07T17:10:06.790Z,1.83
2022-08-07T17:12:38.687Z,1.80
2022-08-07T17:15:44.195Z,2.10
2022-08-07T17:18:18.305Z,2.10
2022-08-07T17:20:46.449Z,1.67
2022-08-07T17:23:16.686Z,1.70
2022-08-07T17:25:52.162Z,2.10
2022-08-07T17:28:33.246Z,1.90
2022-08-07T17:31:16.302Z,2.20
2022-08-07T17:34:30.708Z,1.83
2022-08-07T17:36:58.178Z,2.00
2022-08-07T17:39:53.157Z,1.83
2022-08-07T17:42:27.227Z,2.55
2022-08-07T17:44:58.416Z,2.15
2022-08-07T17:47:54.209Z,1.92
2022-08-07T17:50:23.500Z,2.25
2022-08-07T17:52:59.750Z,1.83
2022-08-07T17:56:01.117Z,2.00
2022-08-07T17:58:31.036Z,2.45
2022-08-07T18:00:59.020Z,2.30
2022-08-07T18:04:03.825Z,2.10
2022-08-07T18:06:37.075Z,2.25
2022-08-07T18:09:05.658Z,2.42
2022-08-07T18:12:18.082Z,2.28
2022-08-07T18:14:27.284Z,2.55
2022-08-07T18:16:57.874Z,2.05
2022-08-07T18:21:06.939Z,2.30
2022-08-07T18:22:26.393Z,2.30
2022-08-07T18:27:38.148Z,2.30
2022-08-07T18:30:32.584Z,2.58
2022-08-07T18:33:10.945Z,2.67
2022-08-07T18:35:55.733Z,2.80
2022-08-07T18:38:56.910Z,2.58
2022-08-07T18:41:20.950Z,2.95
2022-08-07T18:43:58.120Z,2.83
2022-08-07T18:46:31.732Z,2.17
2022-08-07T18:50:32.315Z,2.63
2022-08-07T18:52:34.935Z,2.33
2022-08-07T18:54:58.883Z,2.15
2022-08-07T18:57:36.889Z,2.20
2022-08-07T19:00:34.533Z,2.22
2022-08-07T19:03:01.360Z,2.65
2022-08-07T19:06:02.819Z,2.22
2022-08-07T19:08:46.326Z,2.33
2022-08-07T19:11:36.104Z,2.20
2022-08-07T19:14:20.111Z,2.30
2022-08-07T19:17:05.581Z,2.70
2022-08-07T19:19:39.024Z,2.20
2022-08-07T19:22:18.367Z,2.50
2022-08-07T19:24:57.926Z,2.30
2022-08-07T19:28:57.776Z,2.88
2022-08-07T19:30:58.091Z,2.58
2022-08-07T19:33:15.717Z,2.40
2022-08-07T19:35:45.185Z,2.70
2022-08-07T19:38:17.789Z,2.45
2022-08-07T19:40:50.758Z,2.60
2022-08-07T19:43:43.661Z,2.50
2022-08-07T19:46:14.576Z,2.65
2022-08-07T19:48:44.233Z,2.22
2022-08-07T19:51:24.395Z,2.00
2022-08-07T19:54:30.988Z,2.20
2022-08-07T19:57:51.887Z,2.20
2022-08-07T19:59:45.630Z,2.50
2022-08-07T20:02:19.465Z,2.13
2022-08-07T20:04:49.277Z,2.22
2022-08-07T20:07:23.361Z,2.60
2022-08-07T20:10:36.150Z,2.97
2022-08-07T20:12:43.091Z,2.17
2022-08-07T20:15:19.004Z,2.47
2022-08-07T20:18:01.834Z,2.40
2022-08-07T20:20:31.448Z,2.70
2022-08-07T20:23:01.349Z,2.47
2022-08-07T20:25:40.145Z,2.60
2022-08-07T20:28:11.856Z,2.22
2022-08-07T20:30:46.717Z,2.35
2022-08-07T20:33:36.424Z,2.38
2022-08-07T20:36:04.079Z,3.45
2022-08-07T20:38:33.256Z,2.60
2022-08-07T20:41:03.782Z,3.10
2022-08-07T20:43:33.305Z,2.90
2022-08-07T20:46:26.044Z,2.70
2022-08-07T20:49:55.246Z,2.65
2022-08-07T20:51:40.449Z,2.70
2022-08-07T20:54:29.635Z,2.85
2022-08-07T20:57:00.254Z,2.67
2022-08-07T21:00:06.432Z,2.85
2022-08-07T21:02:38.306Z,3.00
2022-08-07T21:05:10.282Z,3.10
2022-08-07T21:07:49.470Z,3.55
2022-08-07T21:10:25.416Z,3.50
2022-08-07T21:13:03.159Z,3.70
2022-08-07T21:15:58.610Z,3.40
2022-08-07T21:18:33.575Z,3.33
2022-08-07T21:21:01.206Z,3.80
2022-08-07T21:23:34.532Z,3.95
2022-08-07T21:26:17.935Z,3.67
2022-08-07T21:28:51.071Z,3.50
2022-08-07T21:31:49.152Z,3.42
2022-08-07T21:34:21.580Z,3.60
2022-08-07T21:36:59.255Z,3.70
2022-08-07T21:39:47.399Z,3.90
2022-08-07T21:42:37.444Z,3.28
2022-08-07T21:46:04.728Z,3.72
2022-08-07T21:48:29.276Z,3.72
2022-08-07T21:51:19.243Z,3.85
2022-08-07T21:53:53.047Z,3.80
2022-08-07T21:56:47.152Z,4.53
2022-08-07T21:59:20.509Z,4.13
2022-08-07T22:02:07.435Z,4.43
2022-08-07T22:04:53.463Z,4.10
2022-08-07T22:07:31.503Z,4.50
2022-08-07T22:10:03.227Z,6.78
2022-08-07T22:12:36.208Z,5.30
2022-08-07T22:15:03.194Z,4.20
2022-08-07T22:17:56.066Z,4.07
2022-08-07T22:20:28.428Z,4.57
2022-08-07T22:22:59.169Z,4.93
2022-08-07T22:25:36.296Z,4.35
2022-08-07T22:28:30.249Z,4.70
2022-08-07T22:30:56.482Z,5.00
2022-08-07T22:33:52.533Z,4.38
2022-08-07T22:36:34.080Z,4.72
2022-08-07T22:39:07.327Z,5.18
2022-08-07T22:42:10.448Z,4.78
2022-08-07T22:44:34.536Z,5.10
2022-08-07T22:47:18.733Z,4.82
2022-08-07T22:50:01.943Z,5.05
2022-08-07T22:52:48.614Z,5.10
2022-08-07T22:55:30.201Z,5.50
2022-08-07T22:58:15.408Z,4.88
2022-08-07T23:00:51.070Z,5.50
2022-08-07T23:03:28.423Z,5.50
2022-08-07T23:06:15.266Z,5.25
2022-08-07T23:08:46.802Z,5.43
2022-08-07T23:11:21.031Z,5.50
2022-08-07T23:14:15.520Z,5.40
2022-08-07T23:16:54.361Z,4.95
2022-08-07T23:20:03.275Z,5.57
2022-08-07T23:22:32.617Z,5.30
2022-08-07T23:25:11.490Z,5.60
2022-08-07T23:28:22.772Z,5.78
2022-08-07T23:31:06.832Z,5.95
2022-08-07T23:34:22.553Z,6.47
2022-08-07T23:37:19.039Z,6.00
2022-08-07T23:39:47.222Z,6.27
2022-08-07T23:42:22.216Z,6.78
2022-08-07T23:44:51.709Z,6.88
2022-08-07T23:47:18.311Z,6.68
2022-08-07T23:49:52.779Z,6.25
2022-08-07T23:53:01.446Z,7.13
2022-08-07T23:55:52.270Z,6.63
2022-08-07T23:58:31.270Z,6.53
